Hovedside
METAR-TAF:

METAR-TAF

Lufthavner :

Örnsköldsvik lufthavn

Örnsköldsvik, Sverige

breddegrad: 63-24N, lengdegrad: 018-58E, høyde over havet: 103 m

Gjeldene værobservasjon

Denne rapporten ble laget for 41 minutter siden, klokken 09:20 UTC
Vind 8 kt fra Sørvest, skiftende mellom Sør-sørvest og Vest
Temperatur 17°C
Luftfuktighet 63%
Trykk 999 hPa
Sikt 10 km eller mer

METAR: ESNO 190920Z AUTO 23008KT 200V260 9999 FEW030/// BKN049/// BKN120/// 17/10 Q0999

Tid: 12:01 (10:01 UTC)

Varsel

Denne rapporten ble laget for 4 timer og 31 minutter siden, klokken 05:30 UTC
Varsel gyldig fra 19. klokken 06 UTC til 19. klokken 10 UTC
Vind 7 kt fra Sørvest
Sikt 10 km eller mer
Brutte skyer i en høyde av 6000 ft
lett regn,

TAF: ESNO 190530Z 1906/1910 23007KT 9999 -RA BKN060

Værobservasjoner og værvarsel for over 4000 flyplasser (METAR- og TAF-rapporter).

Tilgjengelige stasjoner er representert av de røde og gule prikkene på kartet.

Hold musepekeren over prikken for å se navnet på stasjonen.

Klikk så for å se værobservasjoner og -varsler.

For å forandre kartet kan du klikke på den grønne knappen med svart kryss for å zoome inn, på den grønne knappen med strek for å zoome ut, eller på de grønne pilene for å se tilstøtende kart.


METAR-TAF: